sensor_id;sensor_type;location;lat;lon;timestamp;P1;durP1;ratioP1;P2;durP2;ratioP2
23155;SDS011;11746;50.876;4.246;2023-02-18T00:00:14;20.55;;;13.60;;
23155;SDS011;11746;50.876;4.246;2023-02-18T00:02:42;20.40;;;13.60;;
23155;SDS011;11746;50.876;4.246;2023-02-18T00:05:08;17.75;;;13.45;;
23155;SDS011;11746;50.876;4.246;2023-02-18T00:07:35;21.08;;;15.20;;
23155;SDS011;11746;50.876;4.246;2023-02-18T00:10:03;23.63;;;15.20;;
23155;SDS011;11746;50.876;4.246;2023-02-18T00:12:31;22.88;;;15.15;;
23155;SDS011;11746;50.876;4.246;2023-02-18T00:14:57;23.60;;;15.80;;
23155;SDS011;11746;50.876;4.246;2023-02-18T00:17:23;23.25;;;15.02;;
23155;SDS011;11746;50.876;4.246;2023-02-18T00:19:49;22.95;;;16.40;;
23155;SDS011;11746;50.876;4.246;2023-02-18T00:22:15;25.13;;;15.07;;
23155;SDS011;11746;50.876;4.246;2023-02-18T00:24:41;24.27;;;14.48;;
23155;SDS011;11746;50.876;4.246;2023-02-18T00:27:07;19.23;;;12.63;;
23155;SDS011;11746;50.876;4.246;2023-02-18T00:29:34;20.55;;;13.10;;
23155;SDS011;11746;50.876;4.246;2023-02-18T00:32:00;17.33;;;11.88;;
23155;SDS011;11746;50.876;4.246;2023-02-18T00:34:26;18.08;;;12.02;;
23155;SDS011;11746;50.876;4.246;2023-02-18T00:36:51;21.80;;;12.98;;
23155;SDS011;11746;50.876;4.246;2023-02-18T00:39:17;17.83;;;11.68;;
23155;SDS011;11746;50.876;4.246;2023-02-18T00:41:44;31.75;;;13.02;;
23155;SDS011;11746;50.876;4.246;2023-02-18T00:44:10;19.80;;;11.70;;
23155;SDS011;11746;50.876;4.246;2023-02-18T00:46:36;22.02;;;12.23;;
23155;SDS011;11746;50.876;4.246;2023-02-18T00:49:03;18.23;;;11.80;;
23155;SDS011;11746;50.876;4.246;2023-02-18T00:51:29;18.27;;;11.68;;
23155;SDS011;11746;50.876;4.246;2023-02-18T00:53:55;19.15;;;12.13;;
23155;SDS011;11746;50.876;4.246;2023-02-18T00:56:22;19.23;;;12.10;;
23155;SDS011;11746;50.876;4.246;2023-02-18T00:58:48;19.02;;;11.07;;
23155;SDS011;11746;50.876;4.246;2023-02-18T01:01:14;16.48;;;10.32;;
23155;SDS011;11746;50.876;4.246;2023-02-18T01:03:41;17.58;;;11.48;;
23155;SDS011;11746;50.876;4.246;2023-02-18T01:06:08;17.25;;;10.75;;
23155;SDS011;11746;50.876;4.246;2023-02-18T01:08:35;17.55;;;10.75;;
23155;SDS011;11746;50.876;4.246;2023-02-18T01:11:02;17.65;;;10.88;;
23155;SDS011;11746;50.876;4.246;2023-02-18T01:13:28;16.33;;;11.13;;
23155;SDS011;11746;50.876;4.246;2023-02-18T01:15:54;16.80;;;10.57;;
23155;SDS011;11746;50.876;4.246;2023-02-18T01:18:20;17.38;;;10.63;;
23155;SDS011;11746;50.876;4.246;2023-02-18T01:20:47;18.45;;;10.95;;
23155;SDS011;11746;50.876;4.246;2023-02-18T01:23:13;17.02;;;9.52;;
23155;SDS011;11746;50.876;4.246;2023-02-18T01:25:39;12.77;;;8.20;;
23155;SDS011;11746;50.876;4.246;2023-02-18T01:28:06;13.73;;;8.48;;
23155;SDS011;11746;50.876;4.246;2023-02-18T01:30:32;11.00;;;7.60;;
23155;SDS011;11746;50.876;4.246;2023-02-18T01:32:59;12.82;;;7.50;;
23155;SDS011;11746;50.876;4.246;2023-02-18T01:35:25;10.73;;;6.38;;
23155;SDS011;11746;50.876;4.246;2023-02-18T01:37:51;10.18;;;6.53;;
23155;SDS011;11746;50.876;4.246;2023-02-18T01:40:19;10.75;;;6.00;;
23155;SDS011;11746;50.876;4.246;2023-02-18T01:42:49;8.52;;;5.72;;
23155;SDS011;11746;50.876;4.246;2023-02-18T01:48:01;8.88;;;5.10;;
23155;SDS011;11746;50.876;4.246;2023-02-18T01:50:30;8.35;;;4.72;;
23155;SDS011;11746;50.876;4.246;2023-02-18T01:52:59;6.65;;;4.60;;
23155;SDS011;11746;50.876;4.246;2023-02-18T01:55:26;6.65;;;4.25;;
23155;SDS011;11746;50.876;4.246;2023-02-18T01:57:52;6.50;;;4.22;;
23155;SDS011;11746;50.876;4.246;2023-02-18T02:00:19;6.38;;;3.80;;
23155;SDS011;11746;50.876;4.246;2023-02-18T02:02:49;7.05;;;4.38;;
23155;SDS011;11746;50.876;4.246;2023-02-18T02:05:17;7.10;;;4.78;;
23155;SDS011;11746;50.876;4.246;2023-02-18T02:07:44;7.53;;;4.63;;
23155;SDS011;11746;50.876;4.246;2023-02-18T02:10:12;7.15;;;4.40;;
23155;SDS011;11746;50.876;4.246;2023-02-18T02:12:42;7.13;;;4.72;;
23155;SDS011;11746;50.876;4.246;2023-02-18T02:15:32;7.07;;;4.38;;
23155;SDS011;11746;50.876;4.246;2023-02-18T02:18:18;6.85;;;4.32;;
23155;SDS011;11746;50.876;4.246;2023-02-18T02:29:02;7.93;;;5.28;;
23155;SDS011;11746;50.876;4.246;2023-02-18T02:34:33;7.95;;;4.53;;
23155;SDS011;11746;50.876;4.246;2023-02-18T02:45:43;6.88;;;4.45;;
23155;SDS011;11746;50.876;4.246;2023-02-18T02:48:34;8.15;;;3.92;;
23155;SDS011;11746;50.876;4.246;2023-02-18T02:53:36;7.68;;;4.22;;
23155;SDS011;11746;50.876;4.246;2023-02-18T02:56:05;8.13;;;3.85;;
23155;SDS011;11746;50.876;4.246;2023-02-18T02:58:34;5.18;;;3.35;;
23155;SDS011;11746;50.876;4.246;2023-02-18T03:01:19;3.78;;;2.63;;
23155;SDS011;11746;50.876;4.246;2023-02-18T03:09:55;3.78;;;1.70;;
23155;SDS011;11746;50.876;4.246;2023-02-18T03:12:31;2.58;;;1.80;;
23155;SDS011;11746;50.876;4.246;2023-02-18T03:15:27;2.47;;;1.60;;
23155;SDS011;11746;50.876;4.246;2023-02-18T03:18:16;2.75;;;1.48;;
23155;SDS011;11746;50.876;4.246;2023-02-18T03:21:08;2.53;;;1.73;;
23155;SDS011;11746;50.876;4.246;2023-02-18T03:23:42;2.00;;;1.55;;
23155;SDS011;11746;50.876;4.246;2023-02-18T03:26:13;2.47;;;1.52;;
23155;SDS011;11746;50.876;4.246;2023-02-18T03:28:42;2.58;;;1.55;;
23155;SDS011;11746;50.876;4.246;2023-02-18T03:31:14;2.45;;;1.50;;
23155;SDS011;11746;50.876;4.246;2023-02-18T03:33:46;2.97;;;1.60;;
23155;SDS011;11746;50.876;4.246;2023-02-18T03:36:16;2.20;;;1.45;;
23155;SDS011;11746;50.876;4.246;2023-02-18T03:38:44;2.63;;;1.48;;
23155;SDS011;11746;50.876;4.246;2023-02-18T03:41:17;1.88;;;1.45;;
23155;SDS011;11746;50.876;4.246;2023-02-18T03:43:51;1.85;;;1.33;;
23155;SDS011;11746;50.876;4.246;2023-02-18T03:46:20;3.30;;;1.90;;
23155;SDS011;11746;50.876;4.246;2023-02-18T03:48:46;2.63;;;2.00;;
23155;SDS011;11746;50.876;4.246;2023-02-18T03:51:12;2.50;;;1.80;;
23155;SDS011;11746;50.876;4.246;2023-02-18T03:53:38;3.00;;;2.20;;
23155;SDS011;11746;50.876;4.246;2023-02-18T03:56:04;3.45;;;2.00;;
23155;SDS011;11746;50.876;4.246;2023-02-18T03:58:30;2.45;;;1.98;;
23155;SDS011;11746;50.876;4.246;2023-02-18T04:00:56;2.22;;;1.60;;
23155;SDS011;11746;50.876;4.246;2023-02-18T04:03:22;2.63;;;1.90;;
23155;SDS011;11746;50.876;4.246;2023-02-18T04:05:48;2.53;;;1.73;;
23155;SDS011;11746;50.876;4.246;2023-02-18T04:08:14;2.35;;;1.30;;
23155;SDS011;11746;50.876;4.246;2023-02-18T04:10:40;1.63;;;1.27;;
23155;SDS011;11746;50.876;4.246;2023-02-18T04:13:06;2.15;;;1.20;;
23155;SDS011;11746;50.876;4.246;2023-02-18T04:15:32;2.08;;;1.40;;
23155;SDS011;11746;50.876;4.246;2023-02-18T04:17:59;3.40;;;1.50;;
23155;SDS011;11746;50.876;4.246;2023-02-18T04:20:25;2.80;;;1.70;;
23155;SDS011;11746;50.876;4.246;2023-02-18T04:22:50;1.92;;;1.35;;
23155;SDS011;11746;50.876;4.246;2023-02-18T04:25:16;3.53;;;1.65;;
23155;SDS011;11746;50.876;4.246;2023-02-18T04:27:42;2.50;;;1.70;;
23155;SDS011;11746;50.876;4.246;2023-02-18T04:30:08;2.25;;;1.65;;
23155;SDS011;11746;50.876;4.246;2023-02-18T04:32:35;2.47;;;1.63;;
23155;SDS011;11746;50.876;4.246;2023-02-18T04:35:01;4.45;;;2.08;;
23155;SDS011;11746;50.876;4.246;2023-02-18T04:37:27;2.60;;;1.83;;
23155;SDS011;11746;50.876;4.246;2023-02-18T04:39:53;3.17;;;2.10;;
23155;SDS011;11746;50.876;4.246;2023-02-18T04:42:19;3.20;;;2.13;;
23155;SDS011;11746;50.876;4.246;2023-02-18T04:44:45;2.83;;;1.85;;
23155;SDS011;11746;50.876;4.246;2023-02-18T04:47:11;4.75;;;2.17;;
23155;SDS011;11746;50.876;4.246;2023-02-18T04:49:37;3.15;;;2.00;;
23155;SDS011;11746;50.876;4.246;2023-02-18T04:52:03;4.40;;;2.33;;
23155;SDS011;11746;50.876;4.246;2023-02-18T04:54:29;3.28;;;2.40;;
23155;SDS011;11746;50.876;4.246;2023-02-18T04:56:55;4.10;;;2.60;;
23155;SDS011;11746;50.876;4.246;2023-02-18T04:59:21;4.20;;;2.72;;
23155;SDS011;11746;50.876;4.246;2023-02-18T05:01:47;2.92;;;2.10;;
23155;SDS011;11746;50.876;4.246;2023-02-18T05:04:13;3.90;;;2.35;;
23155;SDS011;11746;50.876;4.246;2023-02-18T05:06:38;4.05;;;1.98;;
23155;SDS011;11746;50.876;4.246;2023-02-18T05:09:07;3.20;;;2.30;;
23155;SDS011;11746;50.876;4.246;2023-02-18T05:11:33;3.25;;;2.00;;
23155;SDS011;11746;50.876;4.246;2023-02-18T05:13:59;2.80;;;2.03;;
23155;SDS011;11746;50.876;4.246;2023-02-18T05:16:25;3.67;;;2.13;;
23155;SDS011;11746;50.876;4.246;2023-02-18T05:18:51;4.45;;;2.58;;
23155;SDS011;11746;50.876;4.246;2023-02-18T05:21:17;3.58;;;2.30;;
23155;SDS011;11746;50.876;4.246;2023-02-18T05:23:43;3.72;;;2.30;;
23155;SDS011;11746;50.876;4.246;2023-02-18T05:26:09;4.63;;;3.13;;
23155;SDS011;11746;50.876;4.246;2023-02-18T05:28:35;5.10;;;2.75;;
23155;SDS011;11746;50.876;4.246;2023-02-18T05:31:01;5.78;;;2.72;;
23155;SDS011;11746;50.876;4.246;2023-02-18T05:33:27;5.78;;;2.53;;
23155;SDS011;11746;50.876;4.246;2023-02-18T05:35:53;4.68;;;2.17;;
23155;SDS011;11746;50.876;4.246;2023-02-18T05:38:19;6.95;;;2.30;;
23155;SDS011;11746;50.876;4.246;2023-02-18T05:40:44;7.63;;;2.20;;
23155;SDS011;11746;50.876;4.246;2023-02-18T05:43:10;6.63;;;1.80;;
23155;SDS011;11746;50.876;4.246;2023-02-18T05:45:36;5.97;;;1.70;;
23155;SDS011;11746;50.876;4.246;2023-02-18T05:48:02;3.28;;;1.38;;
23155;SDS011;11746;50.876;4.246;2023-02-18T05:50:28;4.82;;;1.50;;
23155;SDS011;11746;50.876;4.246;2023-02-18T05:52:54;9.27;;;1.70;;
23155;SDS011;11746;50.876;4.246;2023-02-18T05:55:20;5.05;;;1.70;;
23155;SDS011;11746;50.876;4.246;2023-02-18T05:57:46;9.07;;;1.65;;
23155;SDS011;11746;50.876;4.246;2023-02-18T06:00:12;7.35;;;1.42;;
23155;SDS011;11746;50.876;4.246;2023-02-18T06:02:38;7.70;;;1.48;;
23155;SDS011;11746;50.876;4.246;2023-02-18T06:05:04;8.60;;;1.80;;
23155;SDS011;11746;50.876;4.246;2023-02-18T06:07:30;9.95;;;1.92;;
23155;SDS011;11746;50.876;4.246;2023-02-18T06:09:56;7.57;;;1.98;;
23155;SDS011;11746;50.876;4.246;2023-02-18T06:12:22;7.78;;;1.77;;
23155;SDS011;11746;50.876;4.246;2023-02-18T06:14:48;12.88;;;2.08;;
23155;SDS011;11746;50.876;4.246;2023-02-18T06:17:14;10.75;;;2.42;;
23155;SDS011;11746;50.876;4.246;2023-02-18T06:19:43;12.98;;;2.22;;
23155;SDS011;11746;50.876;4.246;2023-02-18T06:22:09;7.20;;;1.70;;
23155;SDS011;11746;50.876;4.246;2023-02-18T06:24:35;15.90;;;1.90;;
23155;SDS011;11746;50.876;4.246;2023-02-18T06:27:02;7.25;;;2.10;;
23155;SDS011;11746;50.876;4.246;2023-02-18T06:29:28;8.80;;;2.05;;
23155;SDS011;11746;50.876;4.246;2023-02-18T06:31:55;10.55;;;2.15;;
23155;SDS011;11746;50.876;4.246;2023-02-18T06:34:22;9.52;;;2.08;;
23155;SDS011;11746;50.876;4.246;2023-02-18T06:36:48;12.05;;;2.05;;
23155;SDS011;11746;50.876;4.246;2023-02-18T06:39:14;11.23;;;1.92;;
23155;SDS011;11746;50.876;4.246;2023-02-18T06:41:40;11.02;;;2.00;;
23155;SDS011;11746;50.876;4.246;2023-02-18T06:44:06;18.35;;;2.33;;
23155;SDS011;11746;50.876;4.246;2023-02-18T06:46:32;12.10;;;2.28;;
23155;SDS011;11746;50.876;4.246;2023-02-18T06:48:58;12.93;;;2.50;;
23155;SDS011;11746;50.876;4.246;2023-02-18T06:51:24;13.60;;;2.00;;
23155;SDS011;11746;50.876;4.246;2023-02-18T06:53:50;13.13;;;2.25;;
23155;SDS011;11746;50.876;4.246;2023-02-18T06:56:16;12.55;;;2.10;;
23155;SDS011;11746;50.876;4.246;2023-02-18T06:58:42;17.88;;;2.38;;
23155;SDS011;11746;50.876;4.246;2023-02-18T07:01:08;10.38;;;1.75;;
23155;SDS011;11746;50.876;4.246;2023-02-18T07:03:34;11.40;;;2.25;;
23155;SDS011;11746;50.876;4.246;2023-02-18T07:06:00;10.45;;;2.17;;
23155;SDS011;11746;50.876;4.246;2023-02-18T07:08:26;10.60;;;2.42;;
23155;SDS011;11746;50.876;4.246;2023-02-18T07:10:52;16.38;;;2.83;;
23155;SDS011;11746;50.876;4.246;2023-02-18T07:13:18;11.32;;;1.83;;
23155;SDS011;11746;50.876;4.246;2023-02-18T07:15:44;11.77;;;2.33;;
23155;SDS011;11746;50.876;4.246;2023-02-18T07:18:09;9.65;;;2.10;;
23155;SDS011;11746;50.876;4.246;2023-02-18T07:20:35;13.93;;;1.98;;
23155;SDS011;11746;50.876;4.246;2023-02-18T07:23:01;9.52;;;1.90;;
23155;SDS011;11746;50.876;4.246;2023-02-18T07:25:27;11.27;;;2.40;;
23155;SDS011;11746;50.876;4.246;2023-02-18T07:27:53;13.32;;;2.63;;
23155;SDS011;11746;50.876;4.246;2023-02-18T07:30:19;19.15;;;2.22;;
23155;SDS011;11746;50.876;4.246;2023-02-18T07:32:45;7.82;;;1.77;;
23155;SDS011;11746;50.876;4.246;2023-02-18T07:35:14;17.52;;;2.80;;
23155;SDS011;11746;50.876;4.246;2023-02-18T07:37:44;13.10;;;2.67;;
23155;SDS011;11746;50.876;4.246;2023-02-18T07:40:12;13.05;;;2.33;;
23155;SDS011;11746;50.876;4.246;2023-02-18T07:42:40;12.73;;;2.40;;
23155;SDS011;11746;50.876;4.246;2023-02-18T07:45:06;14.63;;;2.85;;
23155;SDS011;11746;50.876;4.246;2023-02-18T07:47:33;11.57;;;2.63;;
23155;SDS011;11746;50.876;4.246;2023-02-18T07:49:59;12.70;;;3.10;;
23155;SDS011;11746;50.876;4.246;2023-02-18T07:52:25;12.38;;;2.88;;
23155;SDS011;11746;50.876;4.246;2023-02-18T07:54:50;14.43;;;2.78;;
23155;SDS011;11746;50.876;4.246;2023-02-18T07:57:16;13.50;;;2.17;;
23155;SDS011;11746;50.876;4.246;2023-02-18T07:59:42;12.00;;;2.20;;
23155;SDS011;11746;50.876;4.246;2023-02-18T08:02:12;10.85;;;2.00;;
23155;SDS011;11746;50.876;4.246;2023-02-18T08:04:44;10.57;;;2.08;;
23155;SDS011;11746;50.876;4.246;2023-02-18T08:07:13;12.70;;;2.08;;
23155;SDS011;11746;50.876;4.246;2023-02-18T08:09:41;7.60;;;2.17;;
23155;SDS011;11746;50.876;4.246;2023-02-18T08:12:07;10.38;;;2.00;;
23155;SDS011;11746;50.876;4.246;2023-02-18T08:14:33;15.70;;;2.45;;
23155;SDS011;11746;50.876;4.246;2023-02-18T08:16:59;14.63;;;2.42;;
23155;SDS011;11746;50.876;4.246;2023-02-18T08:19:25;14.73;;;2.33;;
23155;SDS011;11746;50.876;4.246;2023-02-18T08:21:51;7.72;;;1.70;;
23155;SDS011;11746;50.876;4.246;2023-02-18T08:24:17;9.52;;;1.65;;
23155;SDS011;11746;50.876;4.246;2023-02-18T08:26:43;10.45;;;1.67;;
23155;SDS011;11746;50.876;4.246;2023-02-18T08:29:09;12.63;;;1.70;;
23155;SDS011;11746;50.876;4.246;2023-02-18T08:31:35;8.70;;;1.50;;
23155;SDS011;11746;50.876;4.246;2023-02-18T08:34:01;12.98;;;1.55;;
23155;SDS011;11746;50.876;4.246;2023-02-18T08:36:28;7.45;;;1.65;;
23155;SDS011;11746;50.876;4.246;2023-02-18T08:38:54;9.15;;;1.92;;
23155;SDS011;11746;50.876;4.246;2023-02-18T08:41:21;10.05;;;1.52;;
23155;SDS011;11746;50.876;4.246;2023-02-18T08:43:47;9.02;;;1.55;;
23155;SDS011;11746;50.876;4.246;2023-02-18T08:46:14;6.35;;;1.52;;
23155;SDS011;11746;50.876;4.246;2023-02-18T08:48:40;9.93;;;1.70;;
23155;SDS011;11746;50.876;4.246;2023-02-18T08:51:17;9.13;;;1.38;;
23155;SDS011;11746;50.876;4.246;2023-02-18T08:53:44;12.40;;;1.92;;
23155;SDS011;11746;50.876;4.246;2023-02-18T08:56:11;7.80;;;1.85;;
23155;SDS011;11746;50.876;4.246;2023-02-18T08:58:38;12.13;;;1.45;;
23155;SDS011;11746;50.876;4.246;2023-02-18T09:01:10;7.20;;;1.27;;
23155;SDS011;11746;50.876;4.246;2023-02-18T09:03:39;10.93;;;1.85;;
23155;SDS011;11746;50.876;4.246;2023-02-18T09:06:05;10.00;;;1.20;;
23155;SDS011;11746;50.876;4.246;2023-02-18T09:08:33;7.05;;;1.33;;
23155;SDS011;11746;50.876;4.246;2023-02-18T09:11:00;7.38;;;1.33;;
23155;SDS011;11746;50.876;4.246;2023-02-18T09:13:28;8.32;;;1.40;;
23155;SDS011;11746;50.876;4.246;2023-02-18T09:15:55;2.97;;;1.00;;
23155;SDS011;11746;50.876;4.246;2023-02-18T09:18:25;8.90;;;1.52;;
23155;SDS011;11746;50.876;4.246;2023-02-18T09:20:54;5.80;;;1.70;;
23155;SDS011;11746;50.876;4.246;2023-02-18T09:23:22;5.65;;;1.25;;
23155;SDS011;11746;50.876;4.246;2023-02-18T09:25:48;6.00;;;1.52;;
23155;SDS011;11746;50.876;4.246;2023-02-18T09:28:14;5.05;;;1.40;;
23155;SDS011;11746;50.876;4.246;2023-02-18T09:30:40;8.85;;;1.17;;
23155;SDS011;11746;50.876;4.246;2023-02-18T09:33:06;8.23;;;1.52;;
23155;SDS011;11746;50.876;4.246;2023-02-18T09:35:32;8.07;;;1.50;;
23155;SDS011;11746;50.876;4.246;2023-02-18T09:37:58;5.53;;;1.42;;
23155;SDS011;11746;50.876;4.246;2023-02-18T09:40:25;6.88;;;1.63;;
23155;SDS011;11746;50.876;4.246;2023-02-18T09:42:54;5.68;;;1.42;;
23155;SDS011;11746;50.876;4.246;2023-02-18T09:45:21;7.80;;;1.40;;
23155;SDS011;11746;50.876;4.246;2023-02-18T09:47:48;9.15;;;1.75;;
23155;SDS011;11746;50.876;4.246;2023-02-18T09:50:19;6.57;;;1.60;;
23155;SDS011;11746;50.876;4.246;2023-02-18T09:52:54;5.22;;;1.23;;
23155;SDS011;11746;50.876;4.246;2023-02-18T09:55:31;5.35;;;1.45;;
23155;SDS011;11746;50.876;4.246;2023-02-18T09:58:07;8.23;;;1.90;;
23155;SDS011;11746;50.876;4.246;2023-02-18T10:00:42;6.63;;;1.35;;
23155;SDS011;11746;50.876;4.246;2023-02-18T10:05:40;8.40;;;1.38;;
23155;SDS011;11746;50.876;4.246;2023-02-18T10:08:55;7.93;;;1.70;;
23155;SDS011;11746;50.876;4.246;2023-02-18T10:11:09;8.55;;;1.45;;
23155;SDS011;11746;50.876;4.246;2023-02-18T10:13:40;8.45;;;1.30;;
23155;SDS011;11746;50.876;4.246;2023-02-18T10:16:07;8.40;;;1.60;;
23155;SDS011;11746;50.876;4.246;2023-02-18T10:18:42;5.65;;;1.25;;
23155;SDS011;11746;50.876;4.246;2023-02-18T10:21:17;3.08;;;0.88;;
23155;SDS011;11746;50.876;4.246;2023-02-18T10:26:32;6.43;;;0.95;;
23155;SDS011;11746;50.876;4.246;2023-02-18T10:29:01;5.80;;;1.10;;
23155;SDS011;11746;50.876;4.246;2023-02-18T10:31:29;6.60;;;1.40;;
23155;SDS011;11746;50.876;4.246;2023-02-18T10:34:18;6.22;;;1.25;;
23155;SDS011;11746;50.876;4.246;2023-02-18T10:36:55;12.45;;;1.90;;
23155;SDS011;11746;50.876;4.246;2023-02-18T10:44:48;6.32;;;1.48;;
23155;SDS011;11746;50.876;4.246;2023-02-18T10:50:00;4.32;;;1.42;;
23155;SDS011;11746;50.876;4.246;2023-02-18T10:52:35;6.22;;;1.23;;
23155;SDS011;11746;50.876;4.246;2023-02-18T10:55:07;10.87;;;1.40;;
23155;SDS011;11746;50.876;4.246;2023-02-18T10:57:56;5.90;;;1.52;;
23155;SDS011;11746;50.876;4.246;2023-02-18T11:00:23;7.18;;;1.55;;
23155;SDS011;11746;50.876;4.246;2023-02-18T11:03:09;10.80;;;1.60;;
23155;SDS011;11746;50.876;4.246;2023-02-18T11:06:02;9.95;;;1.65;;
23155;SDS011;11746;50.876;4.246;2023-02-18T11:08:30;5.75;;;1.10;;
23155;SDS011;11746;50.876;4.246;2023-02-18T11:11:08;9.63;;;1.55;;
23155;SDS011;11746;50.876;4.246;2023-02-18T11:13:42;8.98;;;1.48;;
23155;SDS011;11746;50.876;4.246;2023-02-18T11:16:08;10.07;;;1.90;;
23155;SDS011;11746;50.876;4.246;2023-02-18T11:21:28;10.43;;;1.75;;
23155;SDS011;11746;50.876;4.246;2023-02-18T11:23:54;8.43;;;1.50;;
23155;SDS011;11746;50.876;4.246;2023-02-18T11:26:26;7.15;;;1.48;;
23155;SDS011;11746;50.876;4.246;2023-02-18T11:28:58;8.38;;;1.40;;
23155;SDS011;11746;50.876;4.246;2023-02-18T11:31:39;7.20;;;1.40;;
23155;SDS011;11746;50.876;4.246;2023-02-18T11:34:13;8.98;;;2.17;;
23155;SDS011;11746;50.876;4.246;2023-02-18T11:36:42;10.88;;;1.80;;
23155;SDS011;11746;50.876;4.246;2023-02-18T11:41:54;6.90;;;1.38;;
23155;SDS011;11746;50.876;4.246;2023-02-18T11:44:32;8.63;;;1.60;;
23155;SDS011;11746;50.876;4.246;2023-02-18T11:47:01;10.02;;;1.30;;
23155;SDS011;11746;50.876;4.246;2023-02-18T11:49:57;7.68;;;1.75;;
23155;SDS011;11746;50.876;4.246;2023-02-18T11:52:36;8.23;;;1.88;;
23155;SDS011;11746;50.876;4.246;2023-02-18T11:57:32;8.27;;;1.65;;
23155;SDS011;11746;50.876;4.246;2023-02-18T12:00:00;8.05;;;1.45;;
23155;SDS011;11746;50.876;4.246;2023-02-18T12:05:04;8.32;;;1.42;;
23155;SDS011;11746;50.876;4.246;2023-02-18T12:07:47;8.07;;;1.70;;
23155;SDS011;11746;50.876;4.246;2023-02-18T12:10:24;8.35;;;1.83;;
23155;SDS011;11746;50.876;4.246;2023-02-18T12:13:41;7.47;;;1.40;;
23155;SDS011;11746;50.876;4.246;2023-02-18T12:21:29;6.68;;;1.63;;
23155;SDS011;11746;50.876;4.246;2023-02-18T12:24:28;5.95;;;1.75;;
23155;SDS011;11746;50.876;4.246;2023-02-18T12:41:32;8.55;;;1.40;;
23155;SDS011;11746;50.876;4.246;2023-02-18T12:52:34;7.75;;;1.60;;
23155;SDS011;11746;50.876;4.246;2023-02-18T13:01:22;10.38;;;1.80;;
23155;SDS011;11746;50.876;4.246;2023-02-18T13:09:31;11.82;;;1.95;;
23155;SDS011;11746;50.876;4.246;2023-02-18T13:14:58;12.45;;;2.05;;
23155;SDS011;11746;50.876;4.246;2023-02-18T13:17:28;13.25;;;2.42;;
23155;SDS011;11746;50.876;4.246;2023-02-18T13:20:04;12.85;;;2.15;;
23155;SDS011;11746;50.876;4.246;2023-02-18T13:22:54;9.02;;;1.95;;
23155;SDS011;11746;50.876;4.246;2023-02-18T13:25:21;9.70;;;2.20;;
23155;SDS011;11746;50.876;4.246;2023-02-18T13:30:41;11.85;;;2.60;;
23155;SDS011;11746;50.876;4.246;2023-02-18T13:38:31;8.98;;;2.15;;
23155;SDS011;11746;50.876;4.246;2023-02-18T13:41:20;11.30;;;2.53;;
23155;SDS011;11746;50.876;4.246;2023-02-18T13:43:46;7.95;;;1.85;;
23155;SDS011;11746;50.876;4.246;2023-02-18T13:46:13;11.77;;;2.90;;
23155;SDS011;11746;50.876;4.246;2023-02-18T13:51:11;12.80;;;2.30;;
23155;SDS011;11746;50.876;4.246;2023-02-18T13:53:40;15.38;;;3.20;;
23155;SDS011;11746;50.876;4.246;2023-02-18T13:59:14;13.02;;;3.25;;
23155;SDS011;11746;50.876;4.246;2023-02-18T14:09:58;10.55;;;2.63;;
23155;SDS011;11746;50.876;4.246;2023-02-18T14:17:43;11.30;;;3.28;;
23155;SDS011;11746;50.876;4.246;2023-02-18T14:23:10;8.13;;;2.78;;
23155;SDS011;11746;50.876;4.246;2023-02-18T14:50:35;8.93;;;2.63;;
23155;SDS011;11746;50.876;4.246;2023-02-18T14:53:03;10.05;;;2.55;;
23155;SDS011;11746;50.876;4.246;2023-02-18T14:55:33;8.77;;;2.70;;
23155;SDS011;11746;50.876;4.246;2023-02-18T15:03:54;7.72;;;3.35;;
23155;SDS011;11746;50.876;4.246;2023-02-18T15:08:49;9.45;;;2.75;;
23155;SDS011;11746;50.876;4.246;2023-02-18T15:11:15;7.57;;;2.63;;
23155;SDS011;11746;50.876;4.246;2023-02-18T15:13:43;11.68;;;3.00;;
23155;SDS011;11746;50.876;4.246;2023-02-18T15:16:29;8.40;;;3.33;;
23155;SDS011;11746;50.876;4.246;2023-02-18T15:19:16;11.18;;;3.10;;
23155;SDS011;11746;50.876;4.246;2023-02-18T15:21:46;10.05;;;3.10;;
23155;SDS011;11746;50.876;4.246;2023-02-18T15:26:59;11.05;;;3.25;;
23155;SDS011;11746;50.876;4.246;2023-02-18T15:29:50;9.60;;;3.17;;
23155;SDS011;11746;50.876;4.246;2023-02-18T15:32:21;7.47;;;3.30;;
23155;SDS011;11746;50.876;4.246;2023-02-18T15:34:52;6.97;;;2.58;;
23155;SDS011;11746;50.876;4.246;2023-02-18T15:37:20;12.68;;;4.32;;
23155;SDS011;11746;50.876;4.246;2023-02-18T15:39:46;10.82;;;3.95;;
23155;SDS011;11746;50.876;4.246;2023-02-18T15:44:44;16.85;;;3.90;;
23155;SDS011;11746;50.876;4.246;2023-02-18T15:49:44;10.73;;;2.90;;
23155;SDS011;11746;50.876;4.246;2023-02-18T15:52:13;8.63;;;3.00;;
23155;SDS011;11746;50.876;4.246;2023-02-18T15:54:39;10.10;;;3.00;;
23155;SDS011;11746;50.876;4.246;2023-02-18T15:57:08;7.93;;;3.13;;
23155;SDS011;11746;50.876;4.246;2023-02-18T15:59:43;10.40;;;3.20;;
23155;SDS011;11746;50.876;4.246;2023-02-18T16:02:13;9.75;;;3.20;;
23155;SDS011;11746;50.876;4.246;2023-02-18T16:04:49;9.50;;;2.88;;
23155;SDS011;11746;50.876;4.246;2023-02-18T16:07:26;7.60;;;2.95;;
23155;SDS011;11746;50.876;4.246;2023-02-18T16:12:50;7.65;;;2.70;;
23155;SDS011;11746;50.876;4.246;2023-02-18T16:15:24;3.15;;;2.50;;
23155;SDS011;11746;50.876;4.246;2023-02-18T16:17:53;5.75;;;2.72;;
23155;SDS011;11746;50.876;4.246;2023-02-18T16:20:29;5.88;;;2.40;;
23155;SDS011;11746;50.876;4.246;2023-02-18T16:22:58;7.13;;;2.92;;
23155;SDS011;11746;50.876;4.246;2023-02-18T16:25:47;5.05;;;2.38;;
23155;SDS011;11746;50.876;4.246;2023-02-18T16:28:23;6.60;;;3.08;;
23155;SDS011;11746;50.876;4.246;2023-02-18T16:30:55;6.28;;;2.70;;
23155;SDS011;11746;50.876;4.246;2023-02-18T16:33:21;7.10;;;2.80;;
23155;SDS011;11746;50.876;4.246;2023-02-18T16:35:47;9.63;;;3.00;;
23155;SDS011;11746;50.876;4.246;2023-02-18T16:38:20;6.55;;;2.75;;
23155;SDS011;11746;50.876;4.246;2023-02-18T16:40:48;7.88;;;2.55;;
23155;SDS011;11746;50.876;4.246;2023-02-18T16:43:20;7.45;;;2.47;;
23155;SDS011;11746;50.876;4.246;2023-02-18T16:46:07;7.05;;;2.47;;
23155;SDS011;11746;50.876;4.246;2023-02-18T16:48:42;8.23;;;2.85;;
23155;SDS011;11746;50.876;4.246;2023-02-18T16:53:42;5.25;;;2.70;;
23155;SDS011;11746;50.876;4.246;2023-02-18T16:56:16;9.70;;;2.78;;
23155;SDS011;11746;50.876;4.246;2023-02-18T16:58:44;6.82;;;3.13;;
23155;SDS011;11746;50.876;4.246;2023-02-18T17:01:14;6.40;;;3.08;;
23155;SDS011;11746;50.876;4.246;2023-02-18T17:03:48;8.98;;;2.97;;
23155;SDS011;11746;50.876;4.246;2023-02-18T17:06:14;7.45;;;4.10;;
23155;SDS011;11746;50.876;4.246;2023-02-18T17:08:40;6.50;;;3.50;;
23155;SDS011;11746;50.876;4.246;2023-02-18T17:11:08;5.65;;;2.67;;
23155;SDS011;11746;50.876;4.246;2023-02-18T17:13:47;6.65;;;3.78;;
23155;SDS011;11746;50.876;4.246;2023-02-18T17:16:14;6.28;;;3.00;;
23155;SDS011;11746;50.876;4.246;2023-02-18T17:18:40;7.45;;;3.75;;
23155;SDS011;11746;50.876;4.246;2023-02-18T17:21:11;8.00;;;3.30;;
23155;SDS011;11746;50.876;4.246;2023-02-18T17:23:41;9.55;;;3.70;;
23155;SDS011;11746;50.876;4.246;2023-02-18T17:26:25;7.88;;;3.40;;
23155;SDS011;11746;50.876;4.246;2023-02-18T17:28:53;8.90;;;3.80;;
23155;SDS011;11746;50.876;4.246;2023-02-18T17:31:23;8.25;;;3.28;;
23155;SDS011;11746;50.876;4.246;2023-02-18T17:33:57;5.80;;;3.25;;
23155;SDS011;11746;50.876;4.246;2023-02-18T17:36:26;10.77;;;4.28;;
23155;SDS011;11746;50.876;4.246;2023-02-18T17:38:51;7.10;;;4.15;;
23155;SDS011;11746;50.876;4.246;2023-02-18T17:41:18;8.95;;;4.07;;
23155;SDS011;11746;50.876;4.246;2023-02-18T17:43:44;11.35;;;4.43;;
23155;SDS011;11746;50.876;4.246;2023-02-18T17:46:13;8.32;;;4.28;;
23155;SDS011;11746;50.876;4.246;2023-02-18T17:48:41;13.50;;;4.50;;